createdAt,value
2023-03-07T00:01:07.412Z,8.97
2023-03-07T00:06:08.565Z,7.37
2023-03-07T00:11:06.001Z,8.93
2023-03-07T00:16:06.958Z,6.87
2023-03-07T00:21:06.002Z,4.73
2023-03-07T00:26:00.183Z,4.17
2023-03-07T00:30:52.027Z,2.90
2023-03-07T00:35:44.575Z,3.23
2023-03-07T00:40:36.352Z,3.20
2023-03-07T00:45:28.167Z,3.37
2023-03-07T00:50:19.984Z,3.40
2023-03-07T00:55:12.703Z,2.80
2023-03-07T01:00:06.127Z,3.27
2023-03-07T01:04:58.403Z,3.00
2023-03-07T01:09:53.146Z,2.43
2023-03-07T01:14:47.504Z,3.20
2023-03-07T01:19:39.242Z,3.10
2023-03-07T01:24:32.678Z,4.63
2023-03-07T01:29:24.544Z,3.73
2023-03-07T01:34:16.672Z,4.27
2023-03-07T01:39:17.074Z,4.03
2023-03-07T01:44:25.863Z,3.67
2023-03-07T01:49:22.571Z,3.90
2023-03-07T01:54:22.555Z,3.70
2023-03-07T01:59:21.007Z,4.20
2023-03-07T02:04:30.015Z,4.93
2023-03-07T02:09:23.912Z,5.23
2023-03-07T02:14:16.348Z,3.87
2023-03-07T02:19:49.008Z,3.90
2023-03-07T02:24:59.319Z,3.40
2023-03-07T02:29:51.868Z,3.90
2023-03-07T02:34:44.049Z,4.33
2023-03-07T02:39:43.288Z,3.77
2023-03-07T02:44:38.742Z,4.00
2023-03-07T02:49:30.703Z,5.97
2023-03-07T02:54:22.605Z,5.17
2023-03-07T02:59:15.187Z,6.07
2023-03-07T03:04:08.501Z,4.07
2023-03-07T03:09:00.719Z,3.50
2023-03-07T03:13:52.492Z,4.20
2023-03-07T03:18:44.328Z,3.60
2023-03-07T03:23:37.177Z,3.57
2023-03-07T03:28:29.468Z,3.73
2023-03-07T03:33:22.699Z,3.83
2023-03-07T03:38:14.460Z,3.80
2023-03-07T03:43:06.322Z,4.13
2023-03-07T03:48:01.400Z,4.13
2023-03-07T03:52:53.964Z,4.40
2023-03-07T03:57:45.676Z,4.20
2023-03-07T04:02:37.530Z,5.10
2023-03-07T04:07:29.601Z,4.20
2023-03-07T04:12:24.747Z,4.37
2023-03-07T04:17:16.429Z,4.10
2023-03-07T04:22:11.367Z,4.67
2023-03-07T04:27:04.032Z,4.00
2023-03-07T04:31:57.529Z,4.00
2023-03-07T04:36:49.396Z,4.13
2023-03-07T04:41:41.307Z,5.33
2023-03-07T04:46:39.928Z,4.27
2023-03-07T04:51:32.214Z,3.97
2023-03-07T04:56:24.073Z,4.77
2023-03-07T05:01:16.621Z,4.57
2023-03-07T05:06:14.389Z,5.47
2023-03-07T05:11:08.012Z,6.07
2023-03-07T05:16:00.116Z,6.30
2023-03-07T05:20:53.930Z,5.93
2023-03-07T05:25:47.070Z,6.23
2023-03-07T05:30:38.926Z,7.37
2023-03-07T05:35:30.890Z,8.00
2023-03-07T05:40:26.506Z,9.07
2023-03-07T05:45:18.523Z,7.07
2023-03-07T05:50:12.136Z,6.13
2023-03-07T05:55:04.893Z,7.90
2023-03-07T05:59:58.123Z,5.07
2023-03-07T06:04:50.114Z,7.37
2023-03-07T06:09:42.739Z,7.73
2023-03-07T06:14:35.159Z,6.53
2023-03-07T06:19:28.180Z,6.40
2023-03-07T06:24:19.984Z,7.03
2023-03-07T06:29:13.351Z,6.30
2023-03-07T06:34:05.514Z,8.13
2023-03-07T06:38:59.665Z,6.33
2023-03-07T06:43:52.877Z,8.90
2023-03-07T06:48:54.564Z,6.63
2023-03-07T06:53:48.400Z,6.33
2023-03-07T06:58:40.369Z,7.17
2023-03-07T07:03:34.404Z,6.63
2023-03-07T07:08:26.732Z,8.53
2023-03-07T07:13:20.832Z,7.97
2023-03-07T07:18:14.039Z,8.80
2023-03-07T07:23:06.964Z,8.87
2023-03-07T07:28:00.755Z,11.43
2023-03-07T07:32:52.590Z,10.77
2023-03-07T07:37:46.866Z,10.03
2023-03-07T07:42:38.629Z,7.70
2023-03-07T07:47:42.435Z,8.60
2023-03-07T07:52:34.214Z,6.43
2023-03-07T07:57:27.945Z,8.37
2023-03-07T08:02:22.537Z,6.70
2023-03-07T08:07:14.584Z,7.30
2023-03-07T08:12:06.990Z,9.20
2023-03-07T08:16:58.703Z,7.23
2023-03-07T08:21:50.404Z,7.80
2023-03-07T08:26:43.741Z,7.33
2023-03-07T08:31:35.608Z,6.10
2023-03-07T08:36:27.386Z,6.67
2023-03-07T08:41:20.346Z,6.13
2023-03-07T08:46:13.774Z,4.23
2023-03-07T08:51:11.876Z,4.00
2023-03-07T08:56:08.364Z,4.10
2023-03-07T09:01:00.456Z,5.13
2023-03-07T09:05:52.621Z,4.57
2023-03-07T09:10:44.301Z,4.03
2023-03-07T09:15:41.747Z,3.50
2023-03-07T09:20:33.413Z,3.90
2023-03-07T09:25:25.196Z,4.60
2023-03-07T09:30:17.056Z,4.73
2023-03-07T09:35:10.525Z,5.63
2023-03-07T09:40:05.907Z,7.80
2023-03-07T09:45:40.645Z,7.63
2023-03-07T09:50:39.058Z,8.83
2023-03-07T09:55:31.985Z,6.60
2023-03-07T10:00:32.069Z,6.20
2023-03-07T10:05:33.678Z,8.53
2023-03-07T10:10:34.291Z,7.27
2023-03-07T10:15:35.464Z,6.00
2023-03-07T10:21:13.186Z,5.60
2023-03-07T10:26:10.636Z,7.67
2023-03-07T10:31:23.800Z,4.50
2023-03-07T10:36:15.366Z,4.00
2023-03-07T10:41:14.096Z,5.23
2023-03-07T10:46:30.940Z,4.93
2023-03-07T10:51:37.823Z,4.40
2023-03-07T10:56:30.362Z,4.53
2023-03-07T11:01:22.033Z,4.10
2023-03-07T11:06:47.009Z,6.07
2023-03-07T11:11:38.690Z,5.67
2023-03-07T11:16:31.833Z,6.00
2023-03-07T11:21:28.364Z,6.80
2023-03-07T11:26:24.295Z,6.60
2023-03-07T11:31:32.949Z,5.90
2023-03-07T11:36:37.786Z,5.33
2023-03-07T11:41:41.856Z,6.20
2023-03-07T11:46:41.202Z,7.30
2023-03-07T11:51:58.733Z,6.60
2023-03-07T11:56:54.880Z,6.77
2023-03-07T12:01:56.326Z,5.77
2023-03-07T12:07:12.808Z,4.93
2023-03-07T12:12:30.993Z,6.90
2023-03-07T12:17:40.861Z,9.03
2023-03-07T12:22:38.517Z,6.63
2023-03-07T12:27:45.199Z,4.20
2023-03-07T12:32:37.970Z,3.83
2023-03-07T12:37:48.601Z,4.03
2023-03-07T12:42:58.763Z,4.20
2023-03-07T12:48:17.989Z,3.40
2023-03-07T12:53:12.617Z,4.17
2023-03-07T12:58:14.078Z,3.13
2023-03-07T13:03:06.782Z,2.53
2023-03-07T13:07:59.864Z,2.30
2023-03-07T13:12:53.696Z,3.23
2023-03-07T13:17:49.867Z,3.13
2023-03-07T13:22:41.504Z,2.87
2023-03-07T13:27:46.968Z,3.93
2023-03-07T13:32:48.448Z,2.20
2023-03-07T13:38:00.089Z,2.17
2023-03-07T13:42:52.156Z,2.40
2023-03-07T13:47:45.766Z,4.70
2023-03-07T13:52:39.145Z,1.90
2023-03-07T13:57:39.143Z,1.70
2023-03-07T14:02:30.968Z,2.30
2023-03-07T14:07:30.307Z,2.20
2023-03-07T14:12:37.478Z,3.23
2023-03-07T14:18:00.049Z,1.63
2023-03-07T14:23:15.730Z,2.20
2023-03-07T14:28:20.788Z,1.83
2023-03-07T14:33:17.717Z,1.53
2023-03-07T14:38:22.916Z,2.20
2023-03-07T14:43:23.711Z,2.70
2023-03-07T14:48:18.466Z,2.53
2023-03-07T14:53:22.833Z,2.50
2023-03-07T14:58:21.303Z,2.40
2023-03-07T15:03:14.828Z,2.87
2023-03-07T15:08:22.930Z,3.77
2023-03-07T15:13:25.885Z,4.60
2023-03-07T15:18:35.840Z,3.73
2023-03-07T15:23:29.789Z,4.30
2023-03-07T15:28:31.596Z,4.27
2023-03-07T15:33:28.163Z,4.63
2023-03-07T15:38:26.047Z,4.37
2023-03-07T15:43:20.915Z,3.40
2023-03-07T15:48:22.819Z,4.07
2023-03-07T15:53:24.890Z,3.77
2023-03-07T15:58:16.636Z,3.13
2023-03-07T16:03:26.397Z,3.73
2023-03-07T16:08:20.081Z,3.43
2023-03-07T16:13:15.866Z,3.70
2023-03-07T16:18:07.972Z,4.37
2023-03-07T16:23:00.855Z,3.53
2023-03-07T16:27:56.975Z,5.23
2023-03-07T16:32:49.810Z,3.30
2023-03-07T16:37:41.498Z,4.50
2023-03-07T16:42:34.095Z,4.00
2023-03-07T16:47:25.771Z,3.90
2023-03-07T16:52:18.230Z,4.17
2023-03-07T16:57:15.842Z,5.20
2023-03-07T17:02:21.949Z,4.33
2023-03-07T17:07:23.643Z,4.07
2023-03-07T17:12:18.097Z,5.13
2023-03-07T17:17:18.181Z,5.47
2023-03-07T17:22:09.983Z,6.07
2023-03-07T17:27:05.917Z,6.73
2023-03-07T17:31:57.851Z,5.67
2023-03-07T17:36:49.552Z,8.00
2023-03-07T17:41:41.234Z,6.10
2023-03-07T17:46:33.018Z,7.53
2023-03-07T17:51:24.667Z,6.30
2023-03-07T17:56:17.333Z,6.43
2023-03-07T18:01:11.279Z,6.80
2023-03-07T18:06:04.834Z,5.23
2023-03-07T18:11:05.658Z,5.43
2023-03-07T18:15:58.001Z,6.57
2023-03-07T18:21:01.678Z,7.97
2023-03-07T18:26:01.684Z,7.87
2023-03-07T18:31:01.308Z,7.47
2023-03-07T18:35:53.105Z,7.43
2023-03-07T18:40:46.155Z,9.40
2023-03-07T18:45:43.021Z,7.47
2023-03-07T18:50:34.678Z,7.73
2023-03-07T18:55:26.974Z,9.73
2023-03-07T19:00:20.565Z,7.97
2023-03-07T19:05:12.324Z,9.53
2023-03-07T19:10:04.810Z,11.50
2023-03-07T19:14:56.555Z,11.43
2023-03-07T19:19:48.434Z,13.73
2023-03-07T19:24:40.917Z,11.50
2023-03-07T19:29:32.856Z,12.37
2023-03-07T19:34:24.564Z,9.63
2023-03-07T19:39:20.416Z,9.73
2023-03-07T19:44:12.258Z,10.07
2023-03-07T19:49:03.946Z,9.30
2023-03-07T19:53:57.550Z,8.50
2023-03-07T19:58:50.351Z,7.30
2023-03-07T20:03:43.303Z,6.90
2023-03-07T20:08:35.532Z,5.57
2023-03-07T20:13:27.187Z,6.30
2023-03-07T20:18:18.905Z,6.60
2023-03-07T20:23:12.196Z,6.43
2023-03-07T20:28:06.435Z,6.30
2023-03-07T20:32:58.268Z,8.00
2023-03-07T20:37:49.943Z,7.50
2023-03-07T20:42:41.752Z,7.63
2023-03-07T20:47:38.142Z,7.03
2023-03-07T20:52:29.856Z,6.90
2023-03-07T20:57:21.555Z,6.77
2023-03-07T21:02:13.256Z,5.97
2023-03-07T21:07:05.354Z,6.07
2023-03-07T21:11:57.097Z,5.60
2023-03-07T21:16:49.500Z,5.77
2023-03-07T21:21:41.535Z,6.30
2023-03-07T21:26:36.041Z,6.10
2023-03-07T21:31:30.067Z,6.93
2023-03-07T21:36:23.387Z,8.23
2023-03-07T21:41:18.760Z,6.50
2023-03-07T21:46:13.227Z,7.60
2023-03-07T21:51:05.884Z,6.27
2023-03-07T21:56:01.451Z,5.73
2023-03-07T22:00:57.367Z,6.03
2023-03-07T22:05:49.084Z,5.37
2023-03-07T22:10:40.848Z,3.70
2023-03-07T22:15:32.523Z,3.50
2023-03-07T22:20:24.216Z,3.73
2023-03-07T22:25:15.907Z,4.50
2023-03-07T22:30:09.626Z,4.30
2023-03-07T22:35:02.135Z,4.77
2023-03-07T22:39:53.896Z,4.57
2023-03-07T22:44:45.535Z,5.07
2023-03-07T22:49:37.209Z,4.10
2023-03-07T22:54:29.634Z,4.80
2023-03-07T22:59:21.392Z,4.87
2023-03-07T23:04:13.559Z,5.50
2023-03-07T23:09:07.425Z,4.83
2023-03-07T23:13:59.279Z,4.70
2023-03-07T23:18:51.751Z,4.17
2023-03-07T23:23:43.965Z,5.37
2023-03-07T23:28:35.776Z,2.60
2023-03-07T23:33:27.458Z,4.80
2023-03-07T23:38:19.084Z,7.73
2023-03-07T23:43:14.276Z,2.90
2023-03-07T23:48:07.265Z,4.43
2023-03-07T23:53:00.237Z,3.90
2023-03-07T23:57:51.868Z,3.50
